createdAt,value
2018-06-08T00:02:07.852Z,18.30
2018-06-08T00:04:36.124Z,18.30
2018-06-08T00:07:04.258Z,18.30
2018-06-08T00:09:33.047Z,18.20
2018-06-08T00:12:01.736Z,18.20
2018-06-08T00:14:30.546Z,18.10
2018-06-08T00:17:00.299Z,18.10
2018-06-08T00:19:30.896Z,18.10
2018-06-08T00:22:00.528Z,18.10
2018-06-08T00:24:30.159Z,18.00
2018-06-08T00:26:58.440Z,18.00
2018-06-08T00:29:27.852Z,18.00
2018-06-08T00:31:56.869Z,17.90
2018-06-08T00:34:26.507Z,17.90
2018-06-08T00:36:55.739Z,17.90
2018-06-08T00:41:54.569Z,17.80
2018-06-08T00:44:23.336Z,17.80
2018-06-08T00:46:52.530Z,17.80
2018-06-08T00:49:25.179Z,17.80
2018-06-08T00:51:55.539Z,17.70
2018-06-08T00:54:24.252Z,17.70
2018-06-08T00:57:03.995Z,17.70
2018-06-08T00:59:32.297Z,17.60
2018-06-08T01:02:01.797Z,17.60
2018-06-08T01:04:29.944Z,17.60
2018-06-08T01:07:01.542Z,17.60
2018-06-08T01:09:31.367Z,17.50
2018-06-08T01:12:00.530Z,17.50
2018-06-08T01:14:33.167Z,17.50
2018-06-08T01:17:02.340Z,17.50
2018-06-08T01:19:33.050Z,17.50
2018-06-08T01:22:01.587Z,17.40
2018-06-08T01:24:31.193Z,17.40
2018-06-08T01:26:59.407Z,17.40
2018-06-08T01:29:27.635Z,17.40
2018-06-08T01:31:55.876Z,17.30
2018-06-08T01:34:24.004Z,17.30
2018-06-08T01:36:52.206Z,17.30
2018-06-08T01:39:21.753Z,17.30
2018-06-08T01:41:53.311Z,17.30
2018-06-08T01:44:21.450Z,17.20
2018-06-08T01:46:50.709Z,17.20
2018-06-08T01:49:20.631Z,17.20
2018-06-08T01:51:49.196Z,17.20
2018-06-08T01:54:17.629Z,17.10
2018-06-08T01:56:46.307Z,17.10
2018-06-08T01:59:20.109Z,17.10
2018-06-08T02:01:49.701Z,17.10
2018-06-08T02:04:17.822Z,17.10
2018-06-08T02:06:46.009Z,17.10
2018-06-08T02:09:14.490Z,17.10
2018-06-08T02:11:42.758Z,17.10
2018-06-08T02:14:10.911Z,17.00
2018-06-08T02:16:39.148Z,17.00
2018-06-08T02:19:07.388Z,17.00
2018-06-08T02:21:35.555Z,16.90
2018-06-08T02:24:04.985Z,16.90
2018-06-08T02:26:33.313Z,16.90
2018-06-08T02:29:01.618Z,16.90
2018-06-08T02:31:30.652Z,16.80
2018-06-08T02:33:58.960Z,16.80
2018-06-08T02:36:27.618Z,16.80
2018-06-08T02:38:55.849Z,16.80
2018-06-08T02:41:26.338Z,16.80
2018-06-08T02:43:54.487Z,16.80
2018-06-08T02:46:22.726Z,16.80
2018-06-08T02:48:50.897Z,16.80
2018-06-08T02:51:19.137Z,16.70
2018-06-08T02:53:47.504Z,16.80
2018-06-08T02:56:23.739Z,16.80
2018-06-08T02:58:55.699Z,16.80
2018-06-08T03:01:25.696Z,16.80
2018-06-08T03:03:54.290Z,16.80
2018-06-08T03:06:22.436Z,16.80
2018-06-08T03:08:51.028Z,16.80
2018-06-08T03:11:19.179Z,16.80
2018-06-08T03:13:48.967Z,16.80
2018-06-08T03:16:18.949Z,16.90
2018-06-08T03:18:47.178Z,16.90
2018-06-08T03:21:15.354Z,16.90
2018-06-08T03:23:43.541Z,16.90
2018-06-08T03:26:11.782Z,16.90
2018-06-08T03:28:39.961Z,16.90
2018-06-08T03:33:36.456Z,16.90
2018-06-08T03:36:05.166Z,17.00
2018-06-08T03:38:33.331Z,17.00
2018-06-08T03:41:01.835Z,17.00
2018-06-08T03:43:30.023Z,17.00
2018-06-08T03:45:58.154Z,17.00
2018-06-08T03:48:26.332Z,17.10
2018-06-08T03:50:54.630Z,17.10
2018-06-08T03:53:25.359Z,17.10
2018-06-08T03:55:53.697Z,17.20
2018-06-08T03:58:23.518Z,17.20
2018-06-08T04:00:51.758Z,17.30
2018-06-08T04:03:19.944Z,17.30
2018-06-08T04:05:48.192Z,17.40
2018-06-08T04:08:16.326Z,17.40
2018-06-08T04:10:45.306Z,17.40
2018-06-08T04:13:13.600Z,17.50
2018-06-08T04:15:41.728Z,17.50
2018-06-08T04:18:09.928Z,17.60
2018-06-08T04:20:39.223Z,17.60
2018-06-08T04:23:08.544Z,17.70
2018-06-08T04:25:40.331Z,17.80
2018-06-08T04:28:08.898Z,17.80
2018-06-08T04:30:38.220Z,17.90
2018-06-08T04:33:07.173Z,18.00
2018-06-08T04:35:35.294Z,18.00
2018-06-08T04:38:03.417Z,18.10
2018-06-08T04:40:31.582Z,18.20
2018-06-08T04:43:00.820Z,18.20
2018-06-08T04:45:31.825Z,18.30
2018-06-08T04:48:00.256Z,18.50
2018-06-08T04:50:30.675Z,19.00
2018-06-08T04:52:58.940Z,20.30
2018-06-08T04:55:27.735Z,21.90
2018-06-08T04:57:56.177Z,23.20
2018-06-08T05:00:25.143Z,24.40
2018-06-08T05:02:53.317Z,25.60
2018-06-08T05:05:21.457Z,26.40
2018-06-08T05:07:49.581Z,27.10
2018-06-08T05:10:17.783Z,27.50
2018-06-08T05:15:13.961Z,28.20
2018-06-08T05:17:42.097Z,28.40
2018-06-08T05:20:10.435Z,28.60
2018-06-08T05:22:38.693Z,28.90
2018-06-08T05:25:06.834Z,29.00
2018-06-08T05:27:35.077Z,29.00
2018-06-08T05:30:07.573Z,28.90
2018-06-08T05:32:35.811Z,28.90
2018-06-08T05:37:33.005Z,29.10
2018-06-08T05:40:01.165Z,29.30
2018-06-08T05:44:57.384Z,29.50
2018-06-08T05:47:25.563Z,29.60
2018-06-08T05:49:54.169Z,29.60
2018-06-08T05:52:22.343Z,29.60
2018-06-08T05:54:50.551Z,29.50
2018-06-08T05:57:18.750Z,29.60
2018-06-08T05:59:46.959Z,29.80
2018-06-08T06:02:15.104Z,29.90
2018-06-08T06:04:43.907Z,29.90
2018-06-08T06:07:12.048Z,30.00
2018-06-08T06:09:41.199Z,30.00
2018-06-08T06:12:09.369Z,30.10
2018-06-08T06:14:37.682Z,30.10
2018-06-08T06:17:06.058Z,30.10
2018-06-08T06:19:34.274Z,30.20
2018-06-08T06:24:30.402Z,30.10
2018-06-08T06:26:58.587Z,30.10
2018-06-08T06:29:26.792Z,29.70
2018-06-08T06:31:54.997Z,29.40
2018-06-08T06:34:26.958Z,29.40
2018-06-08T06:36:55.951Z,29.40
2018-06-08T06:39:24.330Z,29.40
2018-06-08T06:41:52.552Z,29.50
2018-06-08T06:44:20.921Z,29.60
2018-06-08T06:46:49.086Z,29.60
2018-06-08T06:49:17.271Z,29.70
2018-06-08T06:51:45.401Z,29.60
2018-06-08T06:54:13.657Z,29.50
2018-06-08T06:56:43.895Z,29.50
2018-06-08T06:59:12.121Z,29.50
2018-06-08T07:01:40.263Z,29.50
2018-06-08T07:04:08.501Z,29.40
2018-06-08T07:06:36.702Z,29.40
2018-06-08T07:09:08.259Z,29.40
2018-06-08T07:11:37.232Z,29.50
2018-06-08T07:14:05.439Z,29.50
2018-06-08T07:16:33.780Z,29.50
2018-06-08T07:19:04.727Z,29.40
2018-06-08T07:21:35.937Z,29.50
2018-06-08T07:24:04.619Z,29.50
2018-06-08T07:26:35.342Z,29.70
2018-06-08T07:31:35.326Z,29.90
2018-06-08T07:34:06.549Z,29.90
2018-06-08T07:36:35.004Z,29.90
2018-06-08T07:39:03.271Z,29.90
2018-06-08T07:41:31.453Z,29.90
2018-06-08T07:43:59.581Z,29.90
2018-06-08T07:46:28.171Z,29.90
2018-06-08T07:48:57.359Z,29.90
2018-06-08T07:51:25.855Z,29.70
2018-06-08T07:53:56.296Z,29.60
2018-06-08T07:56:25.949Z,29.50
2018-06-08T07:58:54.643Z,29.50
2018-06-08T08:03:51.347Z,29.40
2018-06-08T08:06:21.618Z,29.40
2018-06-08T08:08:50.994Z,29.20
2018-06-08T08:11:19.341Z,29.20
2018-06-08T08:13:48.514Z,29.20
2018-06-08T08:16:18.181Z,29.20
2018-06-08T08:18:46.942Z,29.20
2018-06-08T08:21:15.760Z,29.10
2018-06-08T08:23:47.121Z,29.00
2018-06-08T08:26:17.237Z,29.00
2018-06-08T08:28:46.853Z,28.90
2018-06-08T08:31:16.849Z,28.70
2018-06-08T08:33:45.298Z,28.50
2018-06-08T08:36:14.257Z,28.40
2018-06-08T08:38:42.705Z,28.30
2018-06-08T08:41:11.742Z,28.20
2018-06-08T08:43:39.958Z,28.00
2018-06-08T08:46:08.146Z,27.90
2018-06-08T08:48:37.061Z,27.90
2018-06-08T08:51:07.036Z,27.90
2018-06-08T08:53:37.122Z,27.90
2018-06-08T08:56:06.248Z,27.80
2018-06-08T08:58:37.800Z,27.80
2018-06-08T09:01:07.437Z,27.90
2018-06-08T09:03:37.343Z,27.90
2018-06-08T09:06:06.506Z,27.80
2018-06-08T09:08:34.754Z,27.90
2018-06-08T09:11:03.308Z,28.00
2018-06-08T09:13:32.597Z,28.00
2018-06-08T09:16:00.838Z,28.00
2018-06-08T09:18:29.084Z,27.90
2018-06-08T09:20:57.316Z,27.80
2018-06-08T09:25:53.584Z,27.60
2018-06-08T09:28:21.954Z,27.70
2018-06-08T09:30:51.337Z,27.80
2018-06-08T09:33:19.604Z,27.80
2018-06-08T09:35:49.283Z,27.80
2018-06-08T09:38:19.953Z,27.80
2018-06-08T09:40:48.412Z,27.80
2018-06-08T09:43:17.330Z,27.90
2018-06-08T09:45:46.578Z,28.00
2018-06-08T09:48:14.858Z,28.10
2018-06-08T09:50:43.140Z,28.00
2018-06-08T09:53:12.658Z,28.00
2018-06-08T09:55:43.418Z,28.00
2018-06-08T09:58:11.753Z,27.90
2018-06-08T10:03:15.535Z,27.90
2018-06-08T10:05:44.305Z,27.90
2018-06-08T10:08:14.203Z,27.80
2018-06-08T10:10:42.449Z,27.80
2018-06-08T10:13:10.568Z,27.70
2018-06-08T10:15:39.969Z,27.60
2018-06-08T10:18:11.350Z,27.70
2018-06-08T10:20:40.829Z,27.70
2018-06-08T10:23:10.008Z,27.90
2018-06-08T10:25:40.135Z,28.00
2018-06-08T10:28:08.756Z,28.10
2018-06-08T10:30:38.333Z,28.10
2018-06-08T10:33:06.543Z,28.10
2018-06-08T10:35:35.013Z,28.10
2018-06-08T10:38:04.783Z,28.10
2018-06-08T10:40:33.357Z,28.20
2018-06-08T10:43:02.494Z,28.20
2018-06-08T10:45:31.909Z,28.20
2018-06-08T10:48:00.813Z,28.20
2018-06-08T10:50:30.637Z,28.20
2018-06-08T10:52:59.622Z,28.20
2018-06-08T10:55:31.211Z,28.20
2018-06-08T10:57:59.611Z,28.20
2018-06-08T11:00:27.874Z,28.20
2018-06-08T11:02:57.942Z,28.30
2018-06-08T11:07:54.623Z,28.30
2018-06-08T11:10:25.173Z,28.30
2018-06-08T11:12:54.399Z,28.30
2018-06-08T11:15:25.226Z,28.30
2018-06-08T11:17:54.203Z,28.30
2018-06-08T11:20:22.371Z,28.30
2018-06-08T11:22:53.623Z,28.30
2018-06-08T11:27:49.947Z,28.30
2018-06-08T11:30:18.694Z,28.30
2018-06-08T11:32:46.919Z,28.40
2018-06-08T11:35:15.225Z,28.50
2018-06-08T11:37:43.629Z,28.60
2018-06-08T11:42:39.881Z,28.80
2018-06-08T11:45:10.630Z,28.80
2018-06-08T11:47:39.270Z,28.80
2018-06-08T11:50:14.117Z,28.80
2018-06-08T11:55:11.222Z,28.90
2018-06-08T11:57:40.911Z,28.80
2018-06-08T12:00:10.462Z,28.80
2018-06-08T12:02:41.139Z,28.80
2018-06-08T12:05:09.322Z,28.70
2018-06-08T12:07:38.458Z,28.70
2018-06-08T12:10:06.882Z,28.70
2018-06-08T12:12:38.133Z,28.90
2018-06-08T12:15:07.339Z,28.90
2018-06-08T12:20:05.640Z,28.90
2018-06-08T12:22:34.488Z,28.90
2018-06-08T12:25:04.232Z,29.00
2018-06-08T12:27:33.939Z,29.00
2018-06-08T12:30:02.301Z,29.10
2018-06-08T12:32:30.497Z,29.10
2018-06-08T12:34:59.368Z,29.10
2018-06-08T12:37:28.259Z,29.00
2018-06-08T12:39:57.660Z,29.10
2018-06-08T12:42:29.522Z,29.10
2018-06-08T12:44:59.161Z,29.20
2018-06-08T12:47:27.503Z,29.20
2018-06-08T12:49:57.436Z,29.20
2018-06-08T12:52:25.710Z,29.20
2018-06-08T12:57:22.045Z,29.20
2018-06-08T12:59:52.728Z,29.20
2018-06-08T13:02:22.131Z,29.30
2018-06-08T13:04:51.152Z,29.20
2018-06-08T13:07:21.006Z,29.20
2018-06-08T13:09:51.526Z,29.20
2018-06-08T13:12:20.970Z,29.20
2018-06-08T13:14:50.982Z,29.20
2018-06-08T13:17:20.292Z,29.10
2018-06-08T13:19:49.189Z,29.10
2018-06-08T13:22:22.489Z,29.20
2018-06-08T13:24:51.881Z,29.20
2018-06-08T13:27:21.929Z,29.20
2018-06-08T13:29:52.583Z,29.30
2018-06-08T13:32:21.409Z,29.30
2018-06-08T13:34:50.422Z,29.30
2018-06-08T13:37:18.739Z,29.30
2018-06-08T13:39:46.875Z,29.30
2018-06-08T13:44:45.458Z,29.30
2018-06-08T13:47:14.526Z,29.30
2018-06-08T13:49:43.318Z,29.30
2018-06-08T13:52:12.703Z,29.40
2018-06-08T13:54:42.487Z,29.40
2018-06-08T13:57:10.791Z,29.40
2018-06-08T13:59:39.385Z,29.40
2018-06-08T14:02:08.894Z,29.50
2018-06-08T14:07:07.444Z,29.50
2018-06-08T14:09:36.876Z,29.40
2018-06-08T14:12:07.138Z,29.30
2018-06-08T14:14:36.238Z,29.30
2018-06-08T14:17:06.044Z,29.20
2018-06-08T14:19:34.348Z,29.20
2018-06-08T14:22:02.930Z,29.20
2018-06-08T14:24:33.046Z,29.20
2018-06-08T14:27:01.265Z,29.30
2018-06-08T14:29:33.514Z,29.40
2018-06-08T14:32:02.520Z,29.40
2018-06-08T14:34:32.759Z,29.50
2018-06-08T14:37:04.885Z,29.40
2018-06-08T14:39:34.519Z,29.40
2018-06-08T14:42:03.710Z,29.40
2018-06-08T14:44:31.905Z,29.40
2018-06-08T14:47:02.052Z,29.30
2018-06-08T14:49:30.335Z,29.30
2018-06-08T14:51:59.397Z,29.30
2018-06-08T14:54:27.668Z,29.30
2018-06-08T14:56:56.905Z,29.40
2018-06-08T14:59:25.316Z,29.50
2018-06-08T15:01:53.794Z,29.50
2018-06-08T15:04:22.427Z,29.60
2018-06-08T15:06:50.710Z,29.60
2018-06-08T15:09:19.477Z,29.60
2018-06-08T15:14:15.939Z,29.60
2018-06-08T15:16:44.094Z,29.60
2018-06-08T15:19:12.235Z,29.60
2018-06-08T15:21:40.389Z,29.60
2018-06-08T15:24:08.674Z,29.50
2018-06-08T15:26:36.858Z,29.40
2018-06-08T15:29:05.104Z,29.30
2018-06-08T15:34:01.422Z,29.20
2018-06-08T15:36:29.607Z,29.20
2018-06-08T15:38:57.858Z,29.20
2018-06-08T15:41:26.022Z,29.20
2018-06-08T15:43:55.689Z,29.20
2018-06-08T15:46:23.876Z,29.10
2018-06-08T15:48:52.062Z,29.10
2018-06-08T15:51:20.186Z,29.20
2018-06-08T15:53:48.356Z,29.20
2018-06-08T15:56:16.610Z,29.20
2018-06-08T16:01:13.077Z,29.20
2018-06-08T16:08:37.846Z,29.20
2018-06-08T16:11:06.032Z,29.20
2018-06-08T16:13:34.462Z,29.30
2018-06-08T16:16:03.391Z,29.30
2018-06-08T16:18:31.672Z,29.20
2018-06-08T16:20:59.828Z,29.10
2018-06-08T16:25:56.207Z,29.00
2018-06-08T16:28:25.759Z,29.00
2018-06-08T16:30:53.978Z,28.90
2018-06-08T16:33:22.190Z,28.90
2018-06-08T16:35:50.434Z,28.90
2018-06-08T16:40:46.547Z,28.90
2018-06-08T16:43:14.748Z,28.80
2018-06-08T16:48:10.928Z,28.80
2018-06-08T16:50:39.093Z,28.80
2018-06-08T16:55:35.242Z,28.70
2018-06-08T16:58:03.401Z,28.70
2018-06-08T17:00:31.530Z,28.60
2018-06-08T17:02:59.749Z,28.60
2018-06-08T17:05:27.862Z,28.60
2018-06-08T17:12:52.630Z,28.60
2018-06-08T17:15:21.615Z,28.60
2018-06-08T17:17:49.840Z,28.60
2018-06-08T17:20:17.968Z,28.50
2018-06-08T17:22:46.141Z,28.50
2018-06-08T17:27:43.244Z,28.40
2018-06-08T17:30:11.407Z,28.40
2018-06-08T17:32:39.587Z,28.30
2018-06-08T17:35:07.759Z,28.30
2018-06-08T17:37:36.009Z,28.20
2018-06-08T17:40:05.118Z,28.20
2018-06-08T17:42:33.819Z,28.10
2018-06-08T17:45:02.012Z,28.10
2018-06-08T17:47:30.171Z,28.00
2018-06-08T17:52:26.249Z,27.90
2018-06-08T17:54:54.371Z,27.90
2018-06-08T17:57:22.801Z,27.80
2018-06-08T17:59:50.992Z,27.80
2018-06-08T18:02:19.200Z,27.80
2018-06-08T18:07:15.678Z,27.80
2018-06-08T18:09:43.890Z,27.70
2018-06-08T18:12:12.088Z,27.70
2018-06-08T18:14:40.449Z,27.60
2018-06-08T18:17:08.675Z,27.60
2018-06-08T18:19:36.930Z,27.50
2018-06-08T18:22:05.740Z,27.50
2018-06-08T18:24:33.878Z,27.40
2018-06-08T18:27:02.215Z,27.40
2018-06-08T18:29:31.848Z,27.30
2018-06-08T18:32:01.788Z,27.20
2018-06-08T18:34:30.109Z,27.20
2018-06-08T18:36:58.649Z,27.20
2018-06-08T18:39:27.053Z,27.10
2018-06-08T18:41:55.323Z,27.10
2018-06-08T18:44:23.571Z,27.00
2018-06-08T18:46:51.942Z,26.90
2018-06-08T18:49:20.142Z,26.90
2018-06-08T18:51:48.293Z,26.80
2018-06-08T18:54:16.490Z,26.80
2018-06-08T18:56:44.720Z,26.80
2018-06-08T18:59:13.545Z,26.70
2018-06-08T19:01:41.738Z,26.70
2018-06-08T19:04:10.067Z,26.60
2018-06-08T19:06:39.483Z,26.50
2018-06-08T19:09:13.325Z,26.50
2018-06-08T19:11:42.829Z,26.40
2018-06-08T19:14:11.056Z,26.30
2018-06-08T19:16:39.253Z,26.30
2018-06-08T19:19:08.525Z,26.20
2018-06-08T19:21:36.841Z,26.10
2018-06-08T19:24:05.373Z,26.00
2018-06-08T19:26:34.875Z,25.90
2018-06-08T19:29:03.505Z,25.90
2018-06-08T19:31:32.209Z,25.80
2018-06-08T19:34:02.546Z,25.80
2018-06-08T19:36:31.073Z,25.70
2018-06-08T19:38:59.286Z,25.60
2018-06-08T19:41:27.510Z,25.50
2018-06-08T19:43:55.754Z,25.40
2018-06-08T19:46:24.947Z,25.30
2018-06-08T19:51:22.830Z,25.20
2018-06-08T19:53:51.003Z,25.20
2018-06-08T19:56:19.212Z,25.20
2018-06-08T19:58:47.420Z,25.10
2018-06-08T20:01:15.644Z,25.10
2018-06-08T20:06:12.114Z,25.00
2018-06-08T20:08:40.280Z,25.00
2018-06-08T20:11:08.428Z,24.90
2018-06-08T20:13:36.584Z,24.90
2018-06-08T20:16:04.828Z,24.90
2018-06-08T20:18:33.016Z,24.90
2018-06-08T20:21:01.268Z,24.90
2018-06-08T20:23:29.422Z,24.90
2018-06-08T20:25:57.599Z,24.80
2018-06-08T20:28:27.143Z,24.70
2018-06-08T20:30:56.112Z,24.70
2018-06-08T20:33:24.710Z,24.60
2018-06-08T20:35:53.140Z,24.60
2018-06-08T20:38:21.313Z,24.60
2018-06-08T20:40:49.479Z,24.50
2018-06-08T20:43:17.685Z,24.50
2018-06-08T20:45:46.100Z,24.50
2018-06-08T20:48:14.278Z,24.40
2018-06-08T20:50:43.826Z,24.30
2018-06-08T20:53:12.090Z,24.30
2018-06-08T20:55:40.400Z,24.20
2018-06-08T21:00:41.381Z,24.10
2018-06-08T21:03:09.854Z,24.00
2018-06-08T21:05:39.551Z,24.00
2018-06-08T21:08:07.839Z,24.00
2018-06-08T21:10:36.177Z,24.00
2018-06-08T21:15:32.592Z,24.00
2018-06-08T21:18:00.800Z,23.90
2018-06-08T21:20:29.140Z,23.90
2018-06-08T21:22:58.946Z,23.80
2018-06-08T21:25:27.328Z,23.80
2018-06-08T21:27:56.002Z,23.80
2018-06-08T21:32:54.219Z,23.70
2018-06-08T21:35:24.282Z,23.70
2018-06-08T21:37:55.762Z,23.60
2018-06-08T21:40:23.941Z,23.50
2018-06-08T21:42:52.365Z,23.50
2018-06-08T21:45:20.588Z,23.50
2018-06-08T21:47:48.700Z,23.50
2018-06-08T21:52:45.943Z,23.40
2018-06-08T21:55:14.162Z,23.40
2018-06-08T21:57:45.556Z,23.40
2018-06-08T22:00:13.725Z,23.30
2018-06-08T22:02:41.980Z,23.30
2018-06-08T22:05:10.251Z,23.20
2018-06-08T22:12:34.486Z,23.10
2018-06-08T22:15:02.636Z,23.10
2018-06-08T22:17:30.786Z,23.00
2018-06-08T22:19:58.938Z,23.00
2018-06-08T22:24:55.908Z,22.90
2018-06-08T22:27:24.046Z,22.80
2018-06-08T22:29:52.231Z,22.80
2018-06-08T22:32:20.456Z,22.80
2018-06-08T22:34:48.626Z,22.70
2018-06-08T22:37:16.751Z,22.70
2018-06-08T22:39:44.910Z,22.60
2018-06-08T22:42:13.066Z,22.50
2018-06-08T22:44:41.344Z,22.50
2018-06-08T22:47:09.511Z,22.50
2018-06-08T22:49:38.700Z,22.40
2018-06-08T22:52:07.924Z,22.40
2018-06-08T22:54:36.110Z,22.40
2018-06-08T22:57:04.351Z,22.30
2018-06-08T22:59:32.496Z,22.30
2018-06-08T23:02:00.700Z,22.30
2018-06-08T23:04:28.965Z,22.30
2018-06-08T23:06:57.126Z,22.20
2018-06-08T23:09:25.444Z,22.20
2018-06-08T23:14:28.124Z,22.10
2018-06-08T23:16:56.854Z,22.10
2018-06-08T23:19:25.039Z,22.00
2018-06-08T23:21:53.256Z,22.00
2018-06-08T23:24:21.598Z,22.00
2018-06-08T23:26:49.768Z,21.90
2018-06-08T23:31:46.044Z,21.80
2018-06-08T23:34:14.355Z,21.80
2018-06-08T23:36:42.549Z,21.70
2018-06-08T23:39:10.697Z,21.70
2018-06-08T23:41:39.442Z,21.60
2018-06-08T23:44:09.123Z,21.60
2018-06-08T23:46:37.271Z,21.60
2018-06-08T23:49:05.410Z,21.50
2018-06-08T23:51:34.444Z,21.50
2018-06-08T23:54:02.569Z,21.50
2018-06-08T23:56:30.753Z,21.50
2018-06-08T23:58:58.904Z,21.40
